RPA4350 KATL-KDCA
Flight info
| Callsign | RPA4350 |
|---|---|
| Flight time | 1h 14m |
| Altitude | 35000 |
| Route | JACCC2 KELLN Q56 KIWII WAVES CAPSS3 |
| Aircraft | E75L/M-SDE3GILORVW/S |
Departure
| Time | 2026-05-08 01:55 |
|---|---|
| Airport | Hartsfield Jackson Atlanta International Airport (KATL) |
Arrival
| Time | 2026-05-08 03:10 |
|---|---|
| Airport | Ronald Reagan Washington National Airport (KDCA) |
| Time | Latitude | Longitude | Altitude | Speed | Heading |
|---|---|---|---|---|---|
| 2026-05-08 01:29 | 33.64187 | -84.44192 | 1004 ft | 0 kts | 270° |
| 2026-05-08 01:38 | 33.64187 | -84.44191 | 1004 ft | 1 kts | 270° |
| 2026-05-08 01:39 | 33.64187 | -84.44173 | 1004 ft | 3 kts | 268° |
| 2026-05-08 01:39 | 33.64188 | -84.44152 | 1004 ft | 3 kts | 266° |
| 2026-05-08 01:39 | 33.64193 | -84.44130 | 1004 ft | 3 kts | 233° |
| 2026-05-08 01:39 | 33.64208 | -84.44117 | 1004 ft | 3 kts | 192° |
| 2026-05-08 01:40 | 33.64226 | -84.44115 | 1004 ft | 1 kts | 180° |
| 2026-05-08 01:40 | 33.64232 | -84.44115 | 1004 ft | 0 kts | 180° |
| 2026-05-08 01:42 | 33.64222 | -84.44115 | 1004 ft | 5 kts | 180° |
| 2026-05-08 01:42 | 33.64153 | -84.44115 | 1004 ft | 14 kts | 180° |
| 2026-05-08 01:43 | 33.64050 | -84.44115 | 1004 ft | 16 kts | 180° |
| 2026-05-08 01:43 | 33.63997 | -84.44115 | 1004 ft | 0 kts | 180° |
| 2026-05-08 01:46 | 33.63963 | -84.44115 | 1004 ft | 10 kts | 180° |
| 2026-05-08 01:47 | 33.63876 | -84.44115 | 1004 ft | 14 kts | 180° |
| 2026-05-08 01:47 | 33.63784 | -84.44115 | 1004 ft | 0 kts | 180° |
| 2026-05-08 01:48 | 33.63697 | -84.44109 | 1004 ft | 14 kts | 156° |
| 2026-05-08 01:48 | 33.63665 | -84.43977 | 1004 ft | 21 kts | 91° |
| 2026-05-08 01:48 | 33.63666 | -84.43794 | 1004 ft | 23 kts | 87° |
| 2026-05-08 01:48 | 33.63664 | -84.43592 | 1004 ft | 25 kts | 91° |
| 2026-05-08 01:49 | 33.63664 | -84.43374 | 1004 ft | 27 kts | 91° |
| 2026-05-08 01:49 | 33.63665 | -84.43144 | 1004 ft | 29 kts | 88° |
| 2026-05-08 01:49 | 33.63667 | -84.42901 | 1004 ft | 30 kts | 88° |
| 2026-05-08 01:49 | 33.63656 | -84.42653 | 1004 ft | 30 kts | 91° |
| 2026-05-08 01:50 | 33.63656 | -84.42403 | 1004 ft | 31 kts | 90° |
| 2026-05-08 01:50 | 33.63660 | -84.42143 | 1005 ft | 32 kts | 86° |
| 2026-05-08 01:50 | 33.63664 | -84.41890 | 1004 ft | 30 kts | 95° |
| 2026-05-08 01:50 | 33.63655 | -84.41636 | 1004 ft | 31 kts | 90° |
| 2026-05-08 01:51 | 33.63654 | -84.41393 | 1003 ft | 27 kts | 89° |
| 2026-05-08 01:51 | 33.63655 | -84.41169 | 1004 ft | 28 kts | 90° |
| 2026-05-08 01:51 | 33.63656 | -84.40989 | 1004 ft | 11 kts | 89° |
| 2026-05-08 01:51 | 33.63639 | -84.40926 | 1004 ft | 3 kts | 143° |
| 2026-05-08 01:52 | 33.63611 | -84.40909 | 1004 ft | 6 kts | 168° |
| 2026-05-08 01:52 | 33.63580 | -84.40908 | 1004 ft | 0 kts | 180° |
| 2026-05-08 01:52 | 33.63579 | -84.40908 | 1004 ft | 1 kts | 180° |
| 2026-05-08 01:53 | 33.63528 | -84.40908 | 1004 ft | 13 kts | 182° |
| 2026-05-08 01:53 | 33.63471 | -84.40959 | 1005 ft | 9 kts | 258° |
| 2026-05-08 01:53 | 33.63470 | -84.40976 | 1004 ft | 0 kts | 270° |
| 2026-05-08 01:55 | 33.63471 | -84.41028 | 1004 ft | 33 kts | 270° |
| 2026-05-08 01:55 | 33.63473 | -84.41667 | 1003 ft | 118 kts | 269° |
| 2026-05-08 01:55 | 33.63473 | -84.42893 | 1284 ft | 168 kts | 274° |
| 2026-05-08 01:55 | 33.63506 | -84.44383 | 2252 ft | 185 kts | 275° |
| 2026-05-08 01:56 | 33.63527 | -84.46009 | 3282 ft | 206 kts | 270° |
| 2026-05-08 01:56 | 33.63404 | -84.47147 | 4170 ft | 210 kts | 261° |
| 2026-05-08 01:56 | 33.62599 | -84.49338 | 5846 ft | 217 kts | 245° |
| 2026-05-08 01:56 | 33.62141 | -84.50391 | 6839 ft | 212 kts | 246° |
| 2026-05-08 01:57 | 33.61456 | -84.51968 | 8098 ft | 213 kts | 246° |
| 2026-05-08 01:57 | 33.60548 | -84.54035 | 9633 ft | 219 kts | 247° |
| 2026-05-08 01:57 | 33.60061 | -84.55172 | 9886 ft | 242 kts | 248° |
| 2026-05-08 01:57 | 33.59093 | -84.57016 | 10006 ft | 271 kts | 234° |
| 2026-05-08 01:58 | 33.57491 | -84.58250 | 9995 ft | 279 kts | 206° |
| 2026-05-08 01:58 | 33.55558 | -84.58474 | 9996 ft | 280 kts | 188° |
| 2026-05-08 01:58 | 33.53642 | -84.58422 | 9997 ft | 270 kts | 189° |
| 2026-05-08 01:58 | 33.51805 | -84.58424 | 9986 ft | 264 kts | 191° |
| 2026-05-08 01:59 | 33.49982 | -84.58434 | 10071 ft | 260 kts | 189° |
| 2026-05-08 01:59 | 33.48181 | -84.58204 | 10918 ft | 265 kts | 179° |
| 2026-05-08 01:59 | 33.46417 | -84.57277 | 11604 ft | 294 kts | 152° |
| 2026-05-08 01:59 | 33.45091 | -84.55337 | 12252 ft | 319 kts | 121° |
| 2026-05-08 02:00 | 33.44562 | -84.52699 | 12902 ft | 333 kts | 89° |
| 2026-05-08 02:00 | 33.44797 | -84.49926 | 13598 ft | 337 kts | 79° |
| 2026-05-08 02:00 | 33.45064 | -84.47074 | 14156 ft | 356 kts | 83° |
| 2026-05-08 02:00 | 33.45226 | -84.43937 | 14379 ft | 393 kts | 86° |
| 2026-05-08 02:01 | 33.45347 | -84.40608 | 15171 ft | 405 kts | 86° |
| 2026-05-08 02:01 | 33.45489 | -84.37206 | 16126 ft | 412 kts | 85° |
| 2026-05-08 02:01 | 33.45873 | -84.33837 | 17054 ft | 414 kts | 71° |
| 2026-05-08 02:01 | 33.46923 | -84.30614 | 18005 ft | 413 kts | 57° |
| 2026-05-08 02:02 | 33.48302 | -84.27632 | 18792 ft | 415 kts | 53° |
| 2026-05-08 02:02 | 33.49753 | -84.24599 | 19527 ft | 421 kts | 54° |
| 2026-05-08 02:02 | 33.51158 | -84.21474 | 20248 ft | 428 kts | 56° |
| 2026-05-08 02:02 | 33.52549 | -84.18300 | 20995 ft | 433 kts | 56° |
| 2026-05-08 02:03 | 33.53968 | -84.15090 | 21726 ft | 438 kts | 55° |
| 2026-05-08 02:03 | 33.55415 | -84.11844 | 22433 ft | 443 kts | 55° |
| 2026-05-08 02:03 | 33.56857 | -84.08602 | 23088 ft | 448 kts | 55° |
| 2026-05-08 02:03 | 33.58329 | -84.05284 | 23736 ft | 453 kts | 55° |
| 2026-05-08 02:04 | 33.59815 | -84.01927 | 24279 ft | 458 kts | 55° |
| 2026-05-08 02:04 | 33.61325 | -83.98514 | 24819 ft | 462 kts | 55° |
| 2026-05-08 02:04 | 33.62825 | -83.95122 | 25329 ft | 467 kts | 56° |
| 2026-05-08 02:04 | 33.64357 | -83.91655 | 25871 ft | 471 kts | 56° |
| 2026-05-08 02:05 | 33.65897 | -83.88166 | 26408 ft | 475 kts | 56° |
| 2026-05-08 02:05 | 33.67453 | -83.84637 | 26930 ft | 479 kts | 56° |
| 2026-05-08 02:05 | 33.69005 | -83.81115 | 27445 ft | 483 kts | 56° |
| 2026-05-08 02:05 | 33.70584 | -83.77527 | 27958 ft | 488 kts | 56° |
| 2026-05-08 02:06 | 33.72173 | -83.73910 | 28452 ft | 492 kts | 56° |
| 2026-05-08 02:06 | 33.73780 | -83.70250 | 28960 ft | 496 kts | 56° |
| 2026-05-08 02:06 | 33.75411 | -83.66593 | 29510 ft | 495 kts | 53° |
| 2026-05-08 02:06 | 33.77166 | -83.63023 | 30158 ft | 492 kts | 52° |
| 2026-05-08 02:07 | 33.78945 | -83.59567 | 30648 ft | 491 kts | 50° |
| 2026-05-08 02:07 | 33.80812 | -83.56126 | 31153 ft | 490 kts | 49° |
| 2026-05-08 02:07 | 33.82686 | -83.52691 | 31643 ft | 490 kts | 49° |
| 2026-05-08 02:07 | 33.84535 | -83.49239 | 32148 ft | 490 kts | 50° |
| 2026-05-08 02:08 | 33.86352 | -83.45821 | 32613 ft | 490 kts | 50° |
| 2026-05-08 02:08 | 33.88198 | -83.42360 | 33109 ft | 490 kts | 50° |
| 2026-05-08 02:08 | 33.90044 | -83.38905 | 33599 ft | 489 kts | 50° |
| 2026-05-08 02:08 | 33.91871 | -83.35484 | 34060 ft | 489 kts | 50° |
| 2026-05-08 02:09 | 33.93718 | -83.32020 | 34442 ft | 489 kts | 49° |
| 2026-05-08 02:09 | 33.95563 | -83.28556 | 34593 ft | 497 kts | 49° |
| 2026-05-08 02:09 | 33.99383 | -83.21380 | 34633 ft | 517 kts | 50° |
| 2026-05-08 02:10 | 34.03292 | -83.13994 | 35094 ft | 521 kts | 50° |
| 2026-05-08 02:10 | 34.05258 | -83.10279 | 34989 ft | 531 kts | 50° |
| 2026-05-08 02:10 | 34.07239 | -83.06551 | 34984 ft | 539 kts | 50° |
| 2026-05-08 02:11 | 34.11327 | -82.98803 | 35000 ft | 549 kts | 51° |
| 2026-05-08 02:11 | 34.15398 | -82.90992 | 35008 ft | 553 kts | 51° |
| 2026-05-08 02:12 | 34.19512 | -82.83127 | 35004 ft | 555 kts | 51° |
| 2026-05-08 02:12 | 34.23614 | -82.75254 | 34993 ft | 555 kts | 51° |
| 2026-05-08 02:13 | 34.27735 | -82.67333 | 34978 ft | 556 kts | 51° |
| 2026-05-08 02:13 | 34.31832 | -82.59438 | 34970 ft | 556 kts | 51° |
| 2026-05-08 02:14 | 34.35954 | -82.51477 | 34967 ft | 557 kts | 51° |
| 2026-05-08 02:14 | 34.40041 | -82.43566 | 34968 ft | 557 kts | 51° |
| 2026-05-08 02:15 | 34.44126 | -82.35557 | 34966 ft | 560 kts | 53° |
| 2026-05-08 02:15 | 34.47991 | -82.27305 | 34961 ft | 562 kts | 54° |
| 2026-05-08 02:16 | 34.51758 | -82.19033 | 34974 ft | 559 kts | 51° |
| 2026-05-08 02:16 | 34.56016 | -82.11365 | 34950 ft | 527 kts | 45° |
| 2026-05-08 02:17 | 34.58155 | -82.07929 | 34931 ft | 506 kts | 43° |
| 2026-05-08 02:17 | 34.60255 | -82.04582 | 34914 ft | 489 kts | 43° |
| 2026-05-08 02:17 | 34.62244 | -82.01320 | 34911 ft | 473 kts | 43° |
| 2026-05-08 02:17 | 34.64154 | -81.98148 | 34903 ft | 457 kts | 43° |
| 2026-05-08 02:18 | 34.67998 | -81.91863 | 34966 ft | 471 kts | 43° |
| 2026-05-08 02:18 | 34.69946 | -81.88661 | 34996 ft | 482 kts | 44° |
| 2026-05-08 02:18 | 34.71962 | -81.85324 | 35019 ft | 492 kts | 44° |
| 2026-05-08 02:19 | 34.73991 | -81.81966 | 35025 ft | 503 kts | 44° |
| 2026-05-08 02:19 | 34.76095 | -81.78487 | 35017 ft | 514 kts | 44° |
| 2026-05-08 02:19 | 34.80388 | -81.71375 | 34990 ft | 529 kts | 45° |
| 2026-05-08 02:20 | 34.84769 | -81.64093 | 34971 ft | 534 kts | 45° |
| 2026-05-08 02:20 | 34.89178 | -81.56764 | 34960 ft | 538 kts | 45° |
| 2026-05-08 02:21 | 34.93644 | -81.49330 | 34974 ft | 550 kts | 45° |
| 2026-05-08 02:21 | 34.98184 | -81.41739 | 34981 ft | 555 kts | 45° |
| 2026-05-08 02:22 | 35.02711 | -81.34163 | 34978 ft | 557 kts | 45° |
| 2026-05-08 02:22 | 35.07268 | -81.26520 | 34986 ft | 558 kts | 45° |
| 2026-05-08 02:23 | 35.11837 | -81.18842 | 34999 ft | 559 kts | 45° |
| 2026-05-08 02:23 | 35.16408 | -81.11141 | 35000 ft | 560 kts | 45° |
| 2026-05-08 02:24 | 35.20961 | -81.03406 | 35002 ft | 561 kts | 46° |
| 2026-05-08 02:24 | 35.25532 | -80.95667 | 35003 ft | 561 kts | 45° |
| 2026-05-08 02:25 | 35.30118 | -80.87919 | 34997 ft | 562 kts | 45° |
| 2026-05-08 02:25 | 35.34696 | -80.80141 | 35029 ft | 563 kts | 45° |
| 2026-05-08 02:26 | 35.39284 | -80.72343 | 35028 ft | 564 kts | 45° |
| 2026-05-08 02:26 | 35.43846 | -80.64568 | 35025 ft | 565 kts | 45° |
| 2026-05-08 02:27 | 35.48434 | -80.56731 | 35014 ft | 566 kts | 45° |
| 2026-05-08 02:27 | 35.53030 | -80.48871 | 35006 ft | 567 kts | 45° |
| 2026-05-08 02:28 | 35.57624 | -80.41009 | 35005 ft | 568 kts | 45° |
| 2026-05-08 02:28 | 35.62217 | -80.33093 | 34997 ft | 568 kts | 45° |
| 2026-05-08 02:29 | 35.66783 | -80.25221 | 35002 ft | 568 kts | 45° |
| 2026-05-08 02:29 | 35.71368 | -80.17295 | 35005 ft | 568 kts | 45° |
| 2026-05-08 02:30 | 35.75947 | -80.09358 | 34993 ft | 569 kts | 45° |
| 2026-05-08 02:30 | 35.80495 | -80.01382 | 34990 ft | 569 kts | 45° |
| 2026-05-08 02:31 | 35.85075 | -79.93428 | 34987 ft | 569 kts | 45° |
| 2026-05-08 02:31 | 35.89640 | -79.85450 | 34964 ft | 569 kts | 45° |
| 2026-05-08 02:32 | 35.94235 | -79.77511 | 34963 ft | 568 kts | 45° |
| 2026-05-08 02:32 | 35.98878 | -79.69622 | 34976 ft | 568 kts | 44° |
| 2026-05-08 02:33 | 36.03510 | -79.61710 | 34983 ft | 568 kts | 44° |
| 2026-05-08 02:33 | 36.08133 | -79.53794 | 34992 ft | 568 kts | 44° |
| 2026-05-08 02:34 | 36.13004 | -79.46222 | 34980 ft | 544 kts | 28° |
| 2026-05-08 02:34 | 36.15976 | -79.43493 | 34994 ft | 530 kts | 21° |
| 2026-05-08 02:34 | 36.18927 | -79.40832 | 34992 ft | 533 kts | 22° |
| 2026-05-08 02:35 | 36.24954 | -79.35525 | 34978 ft | 531 kts | 21° |
| 2026-05-08 02:35 | 36.31032 | -79.30261 | 34982 ft | 534 kts | 21° |
| 2026-05-08 02:36 | 36.37143 | -79.24969 | 34977 ft | 535 kts | 21° |
| 2026-05-08 02:36 | 36.43210 | -79.19710 | 34981 ft | 535 kts | 21° |
| 2026-05-08 02:37 | 36.49319 | -79.14412 | 34983 ft | 535 kts | 21° |
| 2026-05-08 02:37 | 36.55422 | -79.09113 | 34977 ft | 535 kts | 21° |
| 2026-05-08 02:38 | 36.61531 | -79.03807 | 34970 ft | 535 kts | 21° |
| 2026-05-08 02:38 | 36.67632 | -78.98500 | 34963 ft | 535 kts | 20° |
| 2026-05-08 02:39 | 36.73694 | -78.93220 | 34957 ft | 534 kts | 20° |
| 2026-05-08 02:39 | 36.79787 | -78.87918 | 34959 ft | 532 kts | 19° |
| 2026-05-08 02:40 | 36.82800 | -78.85152 | 34952 ft | 550 kts | 29° |
| 2026-05-08 02:40 | 36.85391 | -78.81488 | 34960 ft | 575 kts | 44° |
| 2026-05-08 02:40 | 36.90056 | -78.73365 | 34967 ft | 568 kts | 39° |
| 2026-05-08 02:41 | 36.95214 | -78.65927 | 34962 ft | 567 kts | 39° |
| 2026-05-08 02:41 | 37.00159 | -78.58256 | 34966 ft | 570 kts | 40° |
| 2026-05-08 02:42 | 37.05177 | -78.50587 | 34962 ft | 568 kts | 39° |
| 2026-05-08 02:42 | 37.10187 | -78.42917 | 34967 ft | 569 kts | 40° |
| 2026-05-08 02:43 | 37.15184 | -78.35221 | 34968 ft | 569 kts | 40° |
| 2026-05-08 02:43 | 37.20187 | -78.27518 | 34971 ft | 569 kts | 40° |
| 2026-05-08 02:44 | 37.25174 | -78.19810 | 34967 ft | 569 kts | 40° |
| 2026-05-08 02:44 | 37.30129 | -78.12141 | 34962 ft | 569 kts | 40° |
| 2026-05-08 02:45 | 37.35111 | -78.04414 | 34597 ft | 573 kts | 40° |
| 2026-05-08 02:45 | 37.37620 | -78.00515 | 34094 ft | 574 kts | 40° |
| 2026-05-08 02:45 | 37.40144 | -77.96589 | 33218 ft | 576 kts | 40° |
| 2026-05-08 02:46 | 37.42651 | -77.92669 | 32419 ft | 572 kts | 41° |
| 2026-05-08 02:46 | 37.44297 | -77.90096 | 31925 ft | 569 kts | 41° |
| 2026-05-08 02:46 | 37.46768 | -77.86238 | 31194 ft | 564 kts | 42° |
| 2026-05-08 02:46 | 37.49218 | -77.82414 | 30447 ft | 557 kts | 42° |
| 2026-05-08 02:47 | 37.51629 | -77.78638 | 29667 ft | 548 kts | 43° |
| 2026-05-08 02:47 | 37.53986 | -77.74938 | 28970 ft | 536 kts | 43° |
| 2026-05-08 02:47 | 37.56302 | -77.71305 | 28262 ft | 526 kts | 43° |
| 2026-05-08 02:47 | 37.58573 | -77.67742 | 27573 ft | 517 kts | 43° |
| 2026-05-08 02:48 | 37.60808 | -77.64231 | 26908 ft | 508 kts | 43° |
| 2026-05-08 02:48 | 37.63001 | -77.60780 | 26229 ft | 500 kts | 43° |
| 2026-05-08 02:48 | 37.65165 | -77.57373 | 25569 ft | 493 kts | 43° |
| 2026-05-08 02:48 | 37.67295 | -77.54017 | 24921 ft | 486 kts | 44° |
| 2026-05-08 02:49 | 37.69393 | -77.50706 | 24286 ft | 480 kts | 44° |
| 2026-05-08 02:49 | 37.71444 | -77.47465 | 23662 ft | 475 kts | 44° |
| 2026-05-08 02:49 | 37.73493 | -77.44226 | 22996 ft | 468 kts | 44° |
| 2026-05-08 02:49 | 37.75525 | -77.41069 | 22372 ft | 456 kts | 40° |
| 2026-05-08 02:50 | 37.77855 | -77.38473 | 21370 ft | 439 kts | 24° |
| 2026-05-08 02:50 | 37.80509 | -77.37041 | 20619 ft | 391 kts | 0° |
| 2026-05-08 02:50 | 37.83140 | -77.36756 | 20211 ft | 377 kts | 351° |
| 2026-05-08 02:50 | 37.85784 | -77.36444 | 19692 ft | 387 kts | 359° |
| 2026-05-08 02:51 | 37.88426 | -77.35692 | 19184 ft | 391 kts | 5° |
| 2026-05-08 02:51 | 37.91055 | -77.34803 | 18657 ft | 388 kts | 5° |
| 2026-05-08 02:51 | 37.93665 | -77.33978 | 18124 ft | 384 kts | 4° |
| 2026-05-08 02:51 | 37.96246 | -77.33194 | 17678 ft | 379 kts | 4° |
| 2026-05-08 02:52 | 37.98779 | -77.32422 | 17184 ft | 378 kts | 4° |
| 2026-05-08 02:52 | 38.01334 | -77.31637 | 16677 ft | 376 kts | 5° |
| 2026-05-08 02:52 | 38.03867 | -77.30854 | 16180 ft | 373 kts | 5° |
| 2026-05-08 02:52 | 38.06382 | -77.30076 | 15687 ft | 371 kts | 5° |
| 2026-05-08 02:53 | 38.08880 | -77.29294 | 15198 ft | 368 kts | 6° |
| 2026-05-08 02:53 | 38.11356 | -77.28519 | 14710 ft | 365 kts | 6° |
| 2026-05-08 02:53 | 38.13799 | -77.27752 | 14230 ft | 363 kts | 6° |
| 2026-05-08 02:53 | 38.16263 | -77.26979 | 13741 ft | 360 kts | 7° |
| 2026-05-08 02:54 | 38.18682 | -77.26215 | 13271 ft | 356 kts | 7° |
| 2026-05-08 02:54 | 38.21048 | -77.25371 | 12919 ft | 351 kts | 9° |
| 2026-05-08 02:54 | 38.23396 | -77.24519 | 12549 ft | 348 kts | 9° |
| 2026-05-08 02:54 | 38.25709 | -77.23654 | 12326 ft | 345 kts | 9° |
| 2026-05-08 02:55 | 38.28016 | -77.22781 | 12056 ft | 344 kts | 10° |
| 2026-05-08 02:55 | 38.32548 | -77.21065 | 11523 ft | 339 kts | 10° |
| 2026-05-08 02:55 | 38.34786 | -77.20215 | 11260 ft | 331 kts | 10° |
| 2026-05-08 02:56 | 38.36951 | -77.19383 | 11070 ft | 317 kts | 10° |
| 2026-05-08 02:56 | 38.39025 | -77.18585 | 10920 ft | 306 kts | 9° |
| 2026-05-08 02:56 | 38.41039 | -77.17814 | 10795 ft | 299 kts | 9° |
| 2026-05-08 02:56 | 38.43026 | -77.17050 | 10727 ft | 297 kts | 9° |
| 2026-05-08 02:57 | 38.45000 | -77.16292 | 10628 ft | 296 kts | 10° |
| 2026-05-08 02:57 | 38.46965 | -77.15532 | 10532 ft | 295 kts | 9° |
| 2026-05-08 02:57 | 38.48926 | -77.14775 | 10442 ft | 293 kts | 9° |
| 2026-05-08 02:57 | 38.50874 | -77.14022 | 10341 ft | 292 kts | 9° |
| 2026-05-08 02:58 | 38.52820 | -77.13270 | 10244 ft | 291 kts | 9° |
| 2026-05-08 02:58 | 38.54759 | -77.12520 | 10154 ft | 290 kts | 10° |
| 2026-05-08 02:58 | 38.56693 | -77.11772 | 10037 ft | 289 kts | 10° |
| 2026-05-08 02:58 | 38.58612 | -77.11030 | 9952 ft | 287 kts | 10° |
| 2026-05-08 02:59 | 38.60501 | -77.10302 | 9872 ft | 287 kts | 10° |
| 2026-05-08 02:59 | 38.62415 | -77.09565 | 9790 ft | 286 kts | 10° |
| 2026-05-08 02:59 | 38.64321 | -77.08829 | 9713 ft | 285 kts | 10° |
| 2026-05-08 02:59 | 38.66223 | -77.08097 | 9626 ft | 285 kts | 10° |
| 2026-05-08 03:00 | 38.68130 | -77.07414 | 9405 ft | 282 kts | 5° |
| 2026-05-08 03:00 | 38.70047 | -77.07084 | 9058 ft | 276 kts | 0° |
| 2026-05-08 03:00 | 38.71939 | -77.06824 | 8728 ft | 270 kts | 360° |
| 2026-05-08 03:00 | 38.73802 | -77.06615 | 8353 ft | 267 kts | 359° |
| 2026-05-08 03:01 | 38.75624 | -77.06545 | 7935 ft | 253 kts | 351° |
| 2026-05-08 03:01 | 38.77257 | -77.07037 | 7325 ft | 235 kts | 329° |
| 2026-05-08 03:01 | 38.78622 | -77.08088 | 6810 ft | 222 kts | 326° |
| 2026-05-08 03:01 | 38.79923 | -77.09108 | 6581 ft | 219 kts | 326° |
| 2026-05-08 03:02 | 38.81216 | -77.10148 | 6360 ft | 220 kts | 326° |
| 2026-05-08 03:02 | 38.82492 | -77.11205 | 6229 ft | 217 kts | 323° |
| 2026-05-08 03:02 | 38.83641 | -77.12463 | 6068 ft | 219 kts | 316° |
| 2026-05-08 03:02 | 38.84756 | -77.13770 | 6007 ft | 215 kts | 316° |
| 2026-05-08 03:03 | 38.85853 | -77.15094 | 6002 ft | 217 kts | 315° |
| 2026-05-08 03:03 | 38.86935 | -77.16419 | 5884 ft | 218 kts | 315° |
| 2026-05-08 03:03 | 38.88028 | -77.17768 | 5761 ft | 217 kts | 315° |
| 2026-05-08 03:03 | 38.89113 | -77.19115 | 5687 ft | 217 kts | 315° |
| 2026-05-08 03:04 | 38.90195 | -77.20461 | 5619 ft | 217 kts | 315° |
| 2026-05-08 03:04 | 38.91279 | -77.21809 | 5548 ft | 217 kts | 315° |
| 2026-05-08 03:04 | 38.92443 | -77.23038 | 5466 ft | 217 kts | 328° |
| 2026-05-08 03:04 | 38.93887 | -77.23553 | 5361 ft | 213 kts | 356° |
| 2026-05-08 03:05 | 38.95310 | -77.23517 | 5241 ft | 198 kts | 354° |
| 2026-05-08 03:05 | 38.96644 | -77.23149 | 5022 ft | 202 kts | 25° |
| 2026-05-08 03:05 | 38.97550 | -77.21766 | 4836 ft | 206 kts | 59° |
| 2026-05-08 03:05 | 38.98167 | -77.20131 | 4668 ft | 205 kts | 65° |
| 2026-05-08 03:06 | 38.98209 | -77.18304 | 4477 ft | 213 kts | 101° |
| 2026-05-08 03:06 | 38.97721 | -77.16511 | 4317 ft | 213 kts | 114° |
| 2026-05-08 03:06 | 38.96896 | -77.14951 | 4140 ft | 210 kts | 133° |
| 2026-05-08 03:06 | 38.95974 | -77.13519 | 3942 ft | 206 kts | 128° |
| 2026-05-08 03:07 | 38.95117 | -77.12067 | 3642 ft | 197 kts | 133° |
| 2026-05-08 03:07 | 38.94052 | -77.11033 | 3170 ft | 192 kts | 150° |
| 2026-05-08 03:07 | 38.92946 | -77.10159 | 2786 ft | 183 kts | 152° |
| 2026-05-08 03:07 | 38.91956 | -77.09196 | 2394 ft | 178 kts | 137° |
| 2026-05-08 03:08 | 38.91121 | -77.08012 | 1893 ft | 175 kts | 132° |
| 2026-05-08 03:08 | 38.90373 | -77.06900 | 1702 ft | 159 kts | 139° |
| 2026-05-08 03:08 | 38.89537 | -77.06014 | 1341 ft | 155 kts | 150° |
| 2026-05-08 03:08 | 38.88667 | -77.05227 | 959 ft | 147 kts | 144° |
| 2026-05-08 03:09 | 38.87885 | -77.04463 | 633 ft | 135 kts | 149° |
| 2026-05-08 03:09 | 38.87021 | -77.04023 | 325 ft | 133 kts | 171° |
| 2026-05-08 03:09 | 38.86159 | -77.03872 | 53 ft | 121 kts | 177° |
| 2026-05-08 03:09 | 38.85455 | -77.03807 | 21 ft | 62 kts | 174° |
| 2026-05-08 03:10 | 38.85259 | -77.03833 | 17 ft | 12 kts | 236° |
| 2026-05-08 03:10 | 38.85257 | -77.03923 | 18 ft | 11 kts | 270° |
| 2026-05-08 03:10 | 38.85245 | -77.04012 | 18 ft | 10 kts | 250° |
| 2026-05-08 03:10 | 38.85233 | -77.04062 | 18 ft | 0 kts | 254° |